createdAt,value
2023-06-07T00:01:58.674Z,15.49
2023-06-07T00:04:46.288Z,15.43
2023-06-07T00:07:31.699Z,15.38
2023-06-07T00:10:16.957Z,15.37
2023-06-07T00:13:02.597Z,15.34
2023-06-07T00:15:48.320Z,15.27
2023-06-07T00:18:33.895Z,15.25
2023-06-07T00:21:21.138Z,15.22
2023-06-07T00:24:06.859Z,15.18
2023-06-07T00:26:52.264Z,15.15
2023-06-07T00:29:37.714Z,15.10
2023-06-07T00:32:23.976Z,15.05
2023-06-07T00:35:12.616Z,14.98
2023-06-07T00:37:58.140Z,14.95
2023-06-07T00:40:43.452Z,14.90
2023-06-07T00:43:28.690Z,14.86
2023-06-07T00:46:15.309Z,14.84
2023-06-07T00:49:01.571Z,14.83
2023-06-07T00:51:48.380Z,14.82
2023-06-07T00:54:33.918Z,14.76
2023-06-07T00:57:20.130Z,14.72
2023-06-07T01:00:08.089Z,14.63
2023-06-07T01:02:54.284Z,14.54
2023-06-07T01:05:39.814Z,14.50
2023-06-07T01:08:26.886Z,14.43
2023-06-07T01:11:14.087Z,14.37
2023-06-07T01:13:59.629Z,14.33
2023-06-07T01:16:49.715Z,14.25
2023-06-07T01:19:38.045Z,14.25
2023-06-07T01:22:33.889Z,14.22
2023-06-07T01:25:19.568Z,14.19
2023-06-07T01:28:07.017Z,14.13
2023-06-07T01:30:55.332Z,14.07
2023-06-07T01:33:43.656Z,14.06
2023-06-07T01:36:31.782Z,14.06
2023-06-07T01:39:20.693Z,14.02
2023-06-07T01:42:10.059Z,13.95
2023-06-07T01:44:58.194Z,13.89
2023-06-07T01:47:44.652Z,13.84
2023-06-07T01:50:30.531Z,13.80
2023-06-07T01:53:16.251Z,13.81
2023-06-07T01:56:36.978Z,13.79
2023-06-07T01:59:50.944Z,13.76
2023-06-07T02:03:02.722Z,13.63
2023-06-07T02:06:01.021Z,13.61
2023-06-07T02:08:56.059Z,13.60
2023-06-07T02:11:43.262Z,13.61
2023-06-07T02:14:29.553Z,13.58
2023-06-07T02:17:14.906Z,13.55
2023-06-07T02:20:00.648Z,13.54
2023-06-07T02:22:46.297Z,13.50
2023-06-07T02:25:35.370Z,13.43
2023-06-07T02:28:20.846Z,13.43
2023-06-07T02:31:06.455Z,13.41
2023-06-07T02:33:51.926Z,13.33
2023-06-07T02:36:41.399Z,13.30
2023-06-07T02:39:26.950Z,13.26
2023-06-07T02:42:12.101Z,13.22
2023-06-07T02:44:57.431Z,13.27
2023-06-07T02:47:44.676Z,13.26
2023-06-07T02:50:30.197Z,13.18
2023-06-07T02:53:16.199Z,13.20
2023-06-07T02:56:01.680Z,13.18
2023-06-07T02:58:46.833Z,13.18
2023-06-07T03:01:34.242Z,13.15
2023-06-07T03:04:21.180Z,13.08
2023-06-07T03:07:08.878Z,13.09
2023-06-07T03:09:58.418Z,13.07
2023-06-07T03:12:44.042Z,13.01
2023-06-07T03:15:29.266Z,12.95
2023-06-07T03:18:16.679Z,12.92
2023-06-07T03:21:07.605Z,12.93
2023-06-07T03:23:54.379Z,12.89
2023-06-07T03:26:41.173Z,12.88
2023-06-07T03:29:28.074Z,12.86
2023-06-07T03:32:14.157Z,12.82
2023-06-07T03:35:00.197Z,12.81
2023-06-07T03:37:45.726Z,12.78
2023-06-07T03:40:30.964Z,12.74
2023-06-07T03:43:18.756Z,12.74
2023-06-07T03:46:04.171Z,12.69
2023-06-07T03:48:52.817Z,12.71
2023-06-07T03:51:39.950Z,12.70
2023-06-07T03:54:26.498Z,12.73
2023-06-07T03:57:12.214Z,12.74
2023-06-07T04:00:01.701Z,12.79
2023-06-07T04:02:49.427Z,12.75
2023-06-07T04:05:39.686Z,12.79
2023-06-07T04:08:25.495Z,12.74
2023-06-07T04:11:10.722Z,12.73
2023-06-07T04:13:56.230Z,12.74
2023-06-07T04:16:45.207Z,12.70
2023-06-07T04:19:30.753Z,12.77
2023-06-07T04:22:17.695Z,12.77
2023-06-07T04:25:04.630Z,12.70
2023-06-07T04:27:50.175Z,12.68
2023-06-07T04:30:35.699Z,12.64
2023-06-07T04:33:22.386Z,12.66
2023-06-07T04:36:09.957Z,12.67
2023-06-07T04:39:02.063Z,12.69
2023-06-07T04:41:54.222Z,12.77
2023-06-07T04:44:40.898Z,12.78
2023-06-07T04:47:33.558Z,12.80
2023-06-07T04:50:22.035Z,12.77
2023-06-07T04:53:07.583Z,12.69
2023-06-07T04:55:53.079Z,12.63
2023-06-07T04:58:41.769Z,12.68
2023-06-07T05:01:31.204Z,12.67
2023-06-07T05:04:17.957Z,12.67
2023-06-07T05:07:10.035Z,12.73
2023-06-07T05:09:58.812Z,12.82
2023-06-07T05:12:44.784Z,13.05
2023-06-07T05:15:32.567Z,13.13
2023-06-07T05:18:19.927Z,13.21
2023-06-07T05:21:05.904Z,13.36
2023-06-07T05:23:51.203Z,13.43
2023-06-07T05:26:36.446Z,13.40
2023-06-07T05:29:22.742Z,13.41
2023-06-07T05:32:09.986Z,13.41
2023-06-07T05:34:58.879Z,13.64
2023-06-07T05:37:44.340Z,14.50
2023-06-07T05:40:29.724Z,14.61
2023-06-07T05:43:15.083Z,14.37
2023-06-07T05:46:01.680Z,14.13
2023-06-07T05:48:47.538Z,13.99
2023-06-07T05:51:37.765Z,13.92
2023-06-07T05:54:22.930Z,13.95
2023-06-07T05:57:08.554Z,13.91
2023-06-07T05:59:53.811Z,13.90
2023-06-07T06:02:44.168Z,13.91
2023-06-07T06:05:30.032Z,13.90
2023-06-07T06:08:16.972Z,13.91
2023-06-07T06:11:02.186Z,14.02
2023-06-07T06:13:49.655Z,14.10
2023-06-07T06:16:35.428Z,14.21
2023-06-07T06:19:21.502Z,14.20
2023-06-07T06:22:06.821Z,14.27
2023-06-07T06:24:52.007Z,14.32
2023-06-07T06:27:37.473Z,14.39
2023-06-07T06:30:24.706Z,14.35
2023-06-07T06:33:11.319Z,14.38
2023-06-07T06:35:56.702Z,14.42
2023-06-07T06:38:42.008Z,14.35
2023-06-07T06:41:27.178Z,14.33
2023-06-07T06:44:12.417Z,14.36
2023-06-07T06:46:57.680Z,14.39
2023-06-07T06:49:43.034Z,14.44
2023-06-07T06:52:28.347Z,14.47
2023-06-07T06:55:13.532Z,14.51
2023-06-07T06:57:58.941Z,14.54
2023-06-07T07:00:44.073Z,14.56
2023-06-07T07:03:29.866Z,14.57
2023-06-07T07:06:15.112Z,14.62
2023-06-07T07:09:00.850Z,14.62
2023-06-07T07:11:46.725Z,14.64
2023-06-07T07:14:31.763Z,14.73
2023-06-07T07:17:18.138Z,14.84
2023-06-07T07:20:07.247Z,14.95
2023-06-07T07:22:52.882Z,15.11
2023-06-07T07:25:38.166Z,15.18
2023-06-07T07:28:23.278Z,15.25
2023-06-07T07:31:08.991Z,15.31
2023-06-07T07:33:54.393Z,15.26
2023-06-07T07:36:40.178Z,15.36
2023-06-07T07:39:26.879Z,15.47
2023-06-07T07:42:12.267Z,15.63
2023-06-07T07:44:57.448Z,15.82
2023-06-07T07:47:45.641Z,15.96
2023-06-07T07:50:31.253Z,16.04
2023-06-07T07:53:16.530Z,16.15
2023-06-07T07:56:02.727Z,16.14
2023-06-07T07:58:51.890Z,16.30
2023-06-07T08:01:37.476Z,16.41
2023-06-07T08:04:22.628Z,16.49
2023-06-07T08:07:07.826Z,16.74
2023-06-07T08:09:53.073Z,16.90
2023-06-07T08:12:38.336Z,17.02
2023-06-07T08:15:23.721Z,17.13
2023-06-07T08:18:09.084Z,17.28
2023-06-07T08:20:55.058Z,17.36
2023-06-07T08:23:40.155Z,17.37
2023-06-07T08:26:25.530Z,17.49
2023-06-07T08:29:10.976Z,17.70
2023-06-07T08:31:57.966Z,17.90
2023-06-07T08:34:43.585Z,18.11
2023-06-07T08:37:29.178Z,18.21
2023-06-07T08:40:19.220Z,18.19
2023-06-07T08:43:04.787Z,18.21
2023-06-07T08:45:52.031Z,18.10
2023-06-07T08:48:40.981Z,18.10
2023-06-07T08:51:29.754Z,18.08
2023-06-07T08:54:21.823Z,18.13
2023-06-07T08:57:08.746Z,18.05
2023-06-07T08:59:55.526Z,18.03
2023-06-07T09:02:41.397Z,18.12
2023-06-07T09:05:26.840Z,18.13
2023-06-07T09:08:12.156Z,18.18
2023-06-07T09:10:57.550Z,18.28
2023-06-07T09:13:43.542Z,18.35
2023-06-07T09:16:29.446Z,18.46
2023-06-07T09:19:30.892Z,18.53
2023-06-07T09:22:23.479Z,18.50
2023-06-07T09:25:08.881Z,18.46
2023-06-07T09:27:56.053Z,18.51
2023-06-07T09:31:01.148Z,18.55
2023-06-07T09:33:47.524Z,18.61
2023-06-07T09:36:32.902Z,18.67
2023-06-07T09:39:27.396Z,18.71
2023-06-07T09:42:17.888Z,18.62
2023-06-07T09:45:15.561Z,18.75
2023-06-07T09:48:06.090Z,18.84
2023-06-07T09:50:59.292Z,18.77
2023-06-07T09:54:02.337Z,18.69
2023-06-07T09:56:47.802Z,18.60
2023-06-07T09:59:33.060Z,18.53
2023-06-07T10:02:26.729Z,18.56
2023-06-07T10:05:16.923Z,18.54
2023-06-07T10:08:04.414Z,18.47
2023-06-07T10:10:53.549Z,18.42
2023-06-07T10:13:40.725Z,18.47
2023-06-07T10:16:30.407Z,18.51
2023-06-07T10:19:22.040Z,18.51
2023-06-07T10:22:16.268Z,18.51
2023-06-07T10:25:13.241Z,18.68
2023-06-07T10:28:22.576Z,18.86
2023-06-07T10:31:13.572Z,19.00
2023-06-07T10:34:00.997Z,19.12
2023-06-07T10:36:46.415Z,19.29
2023-06-07T10:39:31.426Z,19.51
2023-06-07T10:42:18.362Z,19.74
2023-06-07T10:45:05.886Z,19.85
2023-06-07T10:47:51.736Z,19.93
2023-06-07T10:50:47.950Z,19.99
2023-06-07T10:53:57.269Z,20.22
2023-06-07T10:56:43.267Z,20.46
2023-06-07T10:59:28.548Z,20.71
2023-06-07T11:02:21.452Z,21.01
2023-06-07T11:05:07.546Z,21.10
2023-06-07T11:08:32.046Z,21.34
2023-06-07T11:11:42.327Z,21.28
2023-06-07T11:14:28.047Z,21.27
2023-06-07T11:17:55.869Z,21.42
2023-06-07T11:20:43.004Z,21.51
2023-06-07T11:23:29.899Z,21.76
2023-06-07T11:26:15.952Z,21.75
2023-06-07T11:29:01.905Z,21.94
2023-06-07T11:31:49.344Z,22.18
2023-06-07T11:34:34.823Z,22.37
2023-06-07T11:37:20.210Z,22.70
2023-06-07T11:40:08.946Z,22.73
2023-06-07T11:42:54.360Z,22.80
2023-06-07T11:45:44.412Z,22.91
2023-06-07T11:48:31.914Z,22.82
2023-06-07T11:51:18.301Z,22.77
2023-06-07T11:54:04.062Z,22.79
2023-06-07T11:56:49.250Z,22.98
2023-06-07T11:59:34.796Z,22.98
2023-06-07T12:02:20.739Z,22.85
2023-06-07T12:05:07.521Z,22.84
2023-06-07T12:07:58.752Z,22.92
2023-06-07T12:10:52.849Z,22.79
2023-06-07T12:13:39.581Z,23.02
2023-06-07T12:16:25.021Z,23.58
2023-06-07T12:19:10.686Z,23.69
2023-06-07T12:22:05.215Z,23.73
2023-06-07T12:24:50.357Z,23.84
2023-06-07T12:27:38.066Z,24.05
2023-06-07T12:30:23.250Z,23.97
2023-06-07T12:33:18.835Z,23.86
2023-06-07T12:36:06.685Z,23.63
2023-06-07T12:38:54.122Z,23.63
2023-06-07T12:41:40.334Z,23.87
2023-06-07T12:44:26.034Z,24.03
2023-06-07T12:47:12.283Z,24.24
2023-06-07T12:49:59.339Z,24.45
2023-06-07T12:52:44.811Z,24.71
2023-06-07T12:55:30.087Z,24.99
2023-06-07T12:58:15.401Z,25.07
2023-06-07T13:01:03.862Z,25.41
2023-06-07T13:03:51.001Z,25.55
2023-06-07T13:06:37.402Z,25.33
2023-06-07T13:09:23.044Z,25.27
2023-06-07T13:12:10.188Z,25.09
2023-06-07T13:14:55.558Z,25.07
2023-06-07T13:17:41.392Z,24.94
2023-06-07T13:20:26.936Z,24.76
2023-06-07T13:23:12.231Z,24.66
2023-06-07T13:25:57.540Z,24.58
2023-06-07T13:28:45.280Z,24.46
2023-06-07T13:31:30.832Z,24.39
2023-06-07T13:34:16.299Z,24.04
2023-06-07T13:37:01.634Z,23.89
2023-06-07T13:39:47.065Z,23.74
2023-06-07T13:42:32.324Z,23.73
2023-06-07T13:45:18.227Z,23.70
2023-06-07T13:48:03.849Z,23.81
2023-06-07T13:50:52.398Z,23.80
2023-06-07T13:53:38.219Z,23.99
2023-06-07T13:56:23.692Z,24.10
2023-06-07T13:59:09.274Z,24.15
2023-06-07T14:01:55.499Z,24.27
2023-06-07T14:04:41.040Z,24.17
2023-06-07T14:07:27.031Z,23.99
2023-06-07T14:10:12.958Z,23.80
2023-06-07T14:12:58.218Z,23.79
2023-06-07T14:15:43.570Z,23.76
2023-06-07T14:18:29.001Z,23.91
2023-06-07T14:21:15.926Z,24.02
2023-06-07T14:24:01.665Z,23.85
2023-06-07T14:26:47.351Z,23.87
2023-06-07T14:29:32.659Z,23.84
2023-06-07T14:32:17.886Z,23.86
2023-06-07T14:35:03.671Z,23.85
2023-06-07T14:37:49.511Z,23.88
2023-06-07T14:40:34.717Z,23.81
2023-06-07T14:43:19.771Z,23.81
2023-06-07T14:46:07.530Z,23.75
2023-06-07T14:49:01.107Z,23.76
2023-06-07T14:51:56.789Z,23.85
2023-06-07T14:54:50.760Z,23.85
2023-06-07T14:57:36.427Z,23.88
2023-06-07T15:00:22.603Z,23.82
2023-06-07T15:03:08.775Z,23.75
2023-06-07T15:05:53.886Z,23.78
2023-06-07T15:08:39.367Z,23.88
2023-06-07T15:11:24.652Z,23.79
2023-06-07T15:14:11.076Z,23.84
2023-06-07T15:16:56.472Z,23.80
2023-06-07T15:19:41.981Z,23.88
2023-06-07T15:22:27.751Z,23.85
2023-06-07T15:25:13.092Z,23.76
2023-06-07T15:27:58.517Z,23.81
2023-06-07T15:30:43.826Z,23.74
2023-06-07T15:33:29.153Z,23.75
2023-06-07T15:36:14.518Z,23.76
2023-06-07T15:38:59.619Z,23.80
2023-06-07T15:42:00.555Z,23.85
2023-06-07T15:44:46.953Z,23.88
2023-06-07T15:47:32.256Z,23.93
2023-06-07T15:50:17.527Z,24.00
2023-06-07T15:53:05.035Z,23.95
2023-06-07T15:55:51.406Z,23.97
2023-06-07T15:58:37.600Z,24.06
2023-06-07T16:01:26.354Z,24.08
2023-06-07T16:04:11.704Z,24.08
2023-06-07T16:06:57.059Z,24.24
2023-06-07T16:09:42.384Z,24.22
2023-06-07T16:12:27.669Z,24.34
2023-06-07T16:15:13.081Z,24.62
2023-06-07T16:17:58.552Z,24.72
2023-06-07T16:20:44.145Z,25.08
2023-06-07T16:23:29.644Z,25.17
2023-06-07T16:26:15.491Z,25.37
2023-06-07T16:29:00.929Z,25.64
2023-06-07T16:31:46.239Z,25.79
2023-06-07T16:34:31.699Z,25.58
2023-06-07T16:37:16.934Z,25.34
2023-06-07T16:40:02.099Z,25.06
2023-06-07T16:42:49.702Z,24.81
2023-06-07T16:45:35.302Z,24.66
2023-06-07T16:48:20.733Z,24.53
2023-06-07T16:51:05.940Z,24.36
2023-06-07T16:53:51.321Z,24.45
2023-06-07T16:56:37.612Z,24.98
2023-06-07T16:59:23.248Z,25.46
2023-06-07T17:02:09.282Z,26.01
2023-06-07T17:04:54.674Z,26.52
2023-06-07T17:07:40.727Z,26.88
2023-06-07T17:10:37.338Z,27.20
2023-06-07T17:13:22.554Z,27.45
2023-06-07T17:16:07.713Z,27.38
2023-06-07T17:18:53.264Z,26.96
2023-06-07T17:21:38.686Z,27.02
2023-06-07T17:24:23.877Z,26.97
2023-06-07T17:27:09.779Z,27.00
2023-06-07T17:29:55.347Z,26.72
2023-06-07T17:32:41.954Z,26.44
2023-06-07T17:35:27.315Z,26.24
2023-06-07T17:38:12.814Z,25.92
2023-06-07T17:40:57.862Z,25.56
2023-06-07T17:43:43.016Z,25.28
2023-06-07T17:46:28.223Z,25.09
2023-06-07T17:49:14.650Z,24.94
2023-06-07T17:52:06.352Z,24.81
2023-06-07T17:54:59.808Z,24.63
2023-06-07T17:57:49.378Z,24.49
2023-06-07T18:00:34.584Z,24.34
2023-06-07T18:03:20.393Z,24.25
2023-06-07T18:06:05.815Z,24.15
2023-06-07T18:08:52.281Z,24.07
2023-06-07T18:11:37.866Z,23.98
2023-06-07T18:14:23.149Z,23.87
2023-06-07T18:17:09.877Z,23.78
2023-06-07T18:19:55.139Z,23.68
2023-06-07T18:22:41.194Z,23.63
2023-06-07T18:25:26.845Z,23.55
2023-06-07T18:28:11.957Z,23.45
2023-06-07T18:30:59.047Z,23.37
2023-06-07T18:33:44.314Z,23.33
2023-06-07T18:36:29.780Z,23.31
2023-06-07T18:39:15.069Z,23.26
2023-06-07T18:42:00.694Z,23.16
2023-06-07T18:44:46.314Z,23.06
2023-06-07T18:47:31.657Z,22.92
2023-06-07T18:50:17.810Z,22.83
2023-06-07T18:53:04.031Z,22.72
2023-06-07T18:55:50.733Z,22.66
2023-06-07T18:58:35.878Z,22.61
2023-06-07T19:01:21.256Z,22.58
2023-06-07T19:04:06.560Z,22.52
2023-06-07T19:06:55.376Z,22.51
2023-06-07T19:09:40.765Z,22.40
2023-06-07T19:12:28.863Z,22.31
2023-06-07T19:15:15.548Z,22.24
2023-06-07T19:18:01.121Z,22.17
2023-06-07T19:20:46.554Z,22.09
2023-06-07T19:23:32.698Z,22.09
2023-06-07T19:26:17.963Z,22.03
2023-06-07T19:29:04.076Z,21.95
2023-06-07T19:31:49.303Z,21.91
2023-06-07T19:34:38.438Z,21.86
2023-06-07T19:37:24.014Z,21.77
2023-06-07T19:40:15.455Z,21.71
2023-06-07T19:43:02.834Z,21.64
2023-06-07T19:45:48.332Z,21.65
2023-06-07T19:48:34.535Z,21.61
2023-06-07T19:51:22.110Z,21.54
2023-06-07T19:54:11.341Z,21.52
2023-06-07T19:56:56.625Z,21.45
2023-06-07T19:59:42.324Z,21.40
2023-06-07T20:02:28.580Z,21.36
2023-06-07T20:05:15.977Z,21.32
2023-06-07T20:08:01.596Z,21.22
2023-06-07T20:10:46.815Z,21.11
2023-06-07T20:13:32.113Z,20.98
2023-06-07T20:16:18.950Z,20.88
2023-06-07T20:19:04.804Z,20.74
2023-06-07T20:21:50.206Z,20.61
2023-06-07T20:24:35.448Z,20.52
2023-06-07T20:27:20.686Z,20.41
2023-06-07T20:30:07.655Z,20.30
2023-06-07T20:32:53.084Z,20.23
2023-06-07T20:35:38.308Z,20.16
2023-06-07T20:38:23.701Z,20.11
2023-06-07T20:41:08.889Z,20.06
2023-06-07T20:43:54.380Z,19.98
2023-06-07T20:46:39.598Z,19.88
2023-06-07T20:49:24.924Z,19.81
2023-06-07T20:52:10.309Z,19.74
2023-06-07T20:54:55.697Z,19.67
2023-06-07T20:57:41.191Z,19.61
2023-06-07T21:00:27.113Z,19.52
2023-06-07T21:03:12.757Z,19.51
2023-06-07T21:05:57.997Z,19.45
2023-06-07T21:08:43.193Z,19.37
2023-06-07T21:11:28.448Z,19.32
2023-06-07T21:14:14.526Z,19.30
2023-06-07T21:16:59.989Z,19.23
2023-06-07T21:19:45.166Z,19.16
2023-06-07T21:22:30.802Z,19.12
2023-06-07T21:25:16.334Z,19.08
2023-06-07T21:28:02.575Z,19.07
2023-06-07T21:30:47.875Z,19.01
2023-06-07T21:33:35.689Z,18.97
2023-06-07T21:36:21.399Z,18.90
2023-06-07T21:39:06.668Z,18.87
2023-06-07T21:41:52.598Z,18.86
2023-06-07T21:44:38.689Z,18.77
2023-06-07T21:47:24.192Z,18.72
2023-06-07T21:50:10.757Z,18.68
2023-06-07T21:52:56.555Z,18.67
2023-06-07T21:55:44.116Z,18.61
2023-06-07T21:58:29.714Z,18.56
2023-06-07T22:01:15.103Z,18.49
2023-06-07T22:04:00.456Z,18.43
2023-06-07T22:06:45.849Z,18.35
2023-06-07T22:09:31.135Z,18.27
2023-06-07T22:12:20.042Z,18.22
2023-06-07T22:15:05.955Z,18.18
2023-06-07T22:17:55.406Z,18.09
2023-06-07T22:20:41.277Z,18.03
2023-06-07T22:23:28.234Z,17.97
2023-06-07T22:26:16.187Z,17.89
2023-06-07T22:29:02.979Z,17.80
2023-06-07T22:31:49.266Z,17.69
2023-06-07T22:34:35.930Z,17.64
2023-06-07T22:37:22.325Z,17.56
2023-06-07T22:40:10.598Z,17.47
2023-06-07T22:42:56.132Z,17.39
2023-06-07T22:45:41.380Z,17.34
2023-06-07T22:48:29.864Z,17.23
2023-06-07T22:51:18.999Z,17.15
2023-06-07T22:54:04.615Z,17.06
2023-06-07T22:56:49.986Z,17.01
2023-06-07T22:59:35.207Z,16.90
2023-06-07T23:02:20.940Z,16.84
2023-06-07T23:05:07.195Z,16.74
2023-06-07T23:07:52.512Z,16.74
2023-06-07T23:10:38.068Z,16.61
2023-06-07T23:13:23.687Z,16.58
2023-06-07T23:16:09.179Z,16.48
2023-06-07T23:18:54.545Z,16.40
2023-06-07T23:21:45.526Z,16.31
2023-06-07T23:24:31.033Z,16.25
2023-06-07T23:27:16.399Z,16.17
2023-06-07T23:30:01.549Z,16.13
2023-06-07T23:32:46.697Z,16.08
2023-06-07T23:35:32.219Z,16.00
2023-06-07T23:38:18.295Z,15.95
2023-06-07T23:41:03.721Z,15.86
2023-06-07T23:43:49.081Z,15.78
2023-06-07T23:46:34.290Z,15.72
2023-06-07T23:49:20.595Z,15.66
2023-06-07T23:52:06.399Z,15.56
2023-06-07T23:54:52.022Z,15.52
2023-06-07T23:57:37.416Z,15.46
